sensor_id;sensor_type;location;lat;lon;timestamp;pressure;altitude;pressure_sealevel;temperature;humidity
10460;BME280;54412;51.206;6.888;2023-03-16T00:01:17;101236.53;;;6.35;53.54
10460;BME280;54412;51.206;6.888;2023-03-16T00:03:42;101229.00;;;6.21;53.88
10460;BME280;54412;51.206;6.888;2023-03-16T00:06:08;101231.94;;;6.45;53.45
10460;BME280;54412;51.206;6.888;2023-03-16T00:08:34;101225.78;;;6.47;53.37
10460;BME280;54412;51.206;6.888;2023-03-16T00:11:00;101222.69;;;6.30;53.62
10460;BME280;54412;51.206;6.888;2023-03-16T00:13:28;101228.88;;;6.26;53.76
10460;BME280;54412;51.206;6.888;2023-03-16T00:15:56;101220.56;;;6.09;54.12
10460;BME280;54412;51.206;6.888;2023-03-16T00:18:25;101210.00;;;6.12;54.24
10460;BME280;54412;51.206;6.888;2023-03-16T00:21:00;101212.28;;;5.89;54.56
10460;BME280;54412;51.206;6.888;2023-03-16T00:23:30;101206.16;;;5.90;54.82
10460;BME280;54412;51.206;6.888;2023-03-16T00:26:05;101216.50;;;5.94;54.94
10460;BME280;54412;51.206;6.888;2023-03-16T00:28:33;101207.59;;;6.04;54.71
10460;BME280;54412;51.206;6.888;2023-03-16T00:31:09;101210.44;;;5.92;55.17
10460;BME280;54412;51.206;6.888;2023-03-16T00:33:40;101210.69;;;6.20;54.38
10460;BME280;54412;51.206;6.888;2023-03-16T00:36:08;101209.16;;;6.11;54.57
10460;BME280;54412;51.206;6.888;2023-03-16T00:38:39;101213.63;;;6.06;54.40
10460;BME280;54412;51.206;6.888;2023-03-16T00:41:10;101205.75;;;6.08;54.45
10460;BME280;54412;51.206;6.888;2023-03-16T00:43:40;101218.41;;;5.88;55.28
10460;BME280;54412;51.206;6.888;2023-03-16T00:46:10;101215.31;;;6.09;54.77
10460;BME280;54412;51.206;6.888;2023-03-16T00:48:39;101207.63;;;6.01;54.76
10460;BME280;54412;51.206;6.888;2023-03-16T00:51:10;101205.09;;;5.98;54.86
10460;BME280;54412;51.206;6.888;2023-03-16T00:53:38;101202.38;;;6.01;54.76
10460;BME280;54412;51.206;6.888;2023-03-16T00:56:05;101201.50;;;6.02;54.83
10460;BME280;54412;51.206;6.888;2023-03-16T00:58:32;101202.31;;;6.06;54.93
10460;BME280;54412;51.206;6.888;2023-03-16T01:01:07;101206.09;;;5.93;54.74
10460;BME280;54412;51.206;6.888;2023-03-16T01:03:34;101195.28;;;6.06;54.39
10460;BME280;54412;51.206;6.888;2023-03-16T01:06:11;101202.94;;;6.17;54.59
10460;BME280;54412;51.206;6.888;2023-03-16T01:08:39;101212.13;;;5.96;54.97
10460;BME280;54412;51.206;6.888;2023-03-16T01:11:10;101189.47;;;5.94;55.19
10460;BME280;54412;51.206;6.888;2023-03-16T01:13:37;101185.81;;;6.02;54.86
10460;BME280;54412;51.206;6.888;2023-03-16T01:16:04;101188.19;;;5.70;55.25
10460;BME280;54412;51.206;6.888;2023-03-16T01:18:31;101182.88;;;5.75;55.60
10460;BME280;54412;51.206;6.888;2023-03-16T01:21:01;101172.59;;;6.07;55.16
10460;BME280;54412;51.206;6.888;2023-03-16T01:26:00;101178.78;;;6.04;54.95
10460;BME280;54412;51.206;6.888;2023-03-16T01:28:29;101173.09;;;5.86;54.84
10460;BME280;54412;51.206;6.888;2023-03-16T01:31:09;101163.41;;;5.89;55.13
10460;BME280;54412;51.206;6.888;2023-03-16T01:33:37;101163.28;;;5.95;54.82
10460;BME280;54412;51.206;6.888;2023-03-16T01:36:13;101160.91;;;5.82;54.93
10460;BME280;54412;51.206;6.888;2023-03-16T01:38:39;101158.53;;;5.71;54.50
10460;BME280;54412;51.206;6.888;2023-03-16T01:41:06;101163.13;;;5.60;55.15
10460;BME280;54412;51.206;6.888;2023-03-16T01:43:35;101151.69;;;5.66;54.75
10460;BME280;54412;51.206;6.888;2023-03-16T01:51:30;101147.00;;;5.80;54.26
10460;BME280;54412;51.206;6.888;2023-03-16T01:54:32;101139.94;;;5.85;54.60
10460;BME280;54412;51.206;6.888;2023-03-16T01:57:07;101123.56;;;5.75;54.60
10460;BME280;54412;51.206;6.888;2023-03-16T02:02:08;101139.91;;;5.86;54.45
10460;BME280;54412;51.206;6.888;2023-03-16T02:05:02;101140.41;;;6.02;54.05
10460;BME280;54412;51.206;6.888;2023-03-16T02:07:36;101125.00;;;5.88;54.15
10460;BME280;54412;51.206;6.888;2023-03-16T02:10:06;101125.84;;;5.90;53.52
10460;BME280;54412;51.206;6.888;2023-03-16T02:12:33;101123.34;;;5.86;54.03
10460;BME280;54412;51.206;6.888;2023-03-16T02:14:58;101128.22;;;5.63;54.50
10460;BME280;54412;51.206;6.888;2023-03-16T02:17:27;101122.09;;;5.62;54.59
10460;BME280;54412;51.206;6.888;2023-03-16T02:22:51;101102.00;;;5.64;54.94
10460;BME280;54412;51.206;6.888;2023-03-16T02:25:33;101101.78;;;5.73;54.88
10460;BME280;54412;51.206;6.888;2023-03-16T02:29:02;101092.06;;;5.78;54.72
10460;BME280;54412;51.206;6.888;2023-03-16T02:31:24;101095.47;;;5.82;54.37
10460;BME280;54412;51.206;6.888;2023-03-16T02:33:53;101105.44;;;5.66;55.08
10460;BME280;54412;51.206;6.888;2023-03-16T02:36:20;101093.72;;;5.82;54.84
10460;BME280;54412;51.206;6.888;2023-03-16T02:38:46;101091.25;;;5.76;54.80
10460;BME280;54412;51.206;6.888;2023-03-16T02:41:18;101089.84;;;6.00;54.22
10460;BME280;54412;51.206;6.888;2023-03-16T02:43:53;101084.75;;;5.94;54.02
10460;BME280;54412;51.206;6.888;2023-03-16T02:46:24;101084.13;;;5.81;54.33
10460;BME280;54412;51.206;6.888;2023-03-16T02:49:06;101075.00;;;5.62;54.92
10460;BME280;54412;51.206;6.888;2023-03-16T02:51:34;101078.03;;;5.82;54.33
10460;BME280;54412;51.206;6.888;2023-03-16T02:54:00;101077.25;;;5.79;54.45
10460;BME280;54412;51.206;6.888;2023-03-16T02:56:25;101076.00;;;5.57;55.05
10460;BME280;54412;51.206;6.888;2023-03-16T02:58:51;101075.09;;;5.58;55.25
10460;BME280;54412;51.206;6.888;2023-03-16T03:01:17;101068.66;;;5.72;54.70
10460;BME280;54412;51.206;6.888;2023-03-16T03:03:43;101065.09;;;5.75;54.73
10460;BME280;54412;51.206;6.888;2023-03-16T03:06:09;101060.16;;;5.63;54.96
10460;BME280;54412;51.206;6.888;2023-03-16T03:08:35;101059.38;;;5.59;54.70
10460;BME280;54412;51.206;6.888;2023-03-16T03:11:01;101071.69;;;5.54;55.09
10460;BME280;54412;51.206;6.888;2023-03-16T03:13:27;101069.81;;;5.61;55.07
10460;BME280;54412;51.206;6.888;2023-03-16T03:15:52;101070.09;;;5.49;55.38
10460;BME280;54412;51.206;6.888;2023-03-16T03:18:18;101055.78;;;5.63;55.21
10460;BME280;54412;51.206;6.888;2023-03-16T03:20:44;101056.56;;;5.67;55.20
10460;BME280;54412;51.206;6.888;2023-03-16T03:23:10;101056.72;;;5.61;55.21
10460;BME280;54412;51.206;6.888;2023-03-16T03:25:35;101046.56;;;5.47;55.72
10460;BME280;54412;51.206;6.888;2023-03-16T03:28:03;101048.16;;;5.53;55.46
10460;BME280;54412;51.206;6.888;2023-03-16T03:30:30;101045.22;;;5.68;55.28
10460;BME280;54412;51.206;6.888;2023-03-16T03:32:56;101060.50;;;5.48;55.99
10460;BME280;54412;51.206;6.888;2023-03-16T03:35:22;101062.16;;;5.52;55.53
10460;BME280;54412;51.206;6.888;2023-03-16T03:37:48;101056.88;;;5.53;55.64
10460;BME280;54412;51.206;6.888;2023-03-16T03:40:17;101064.53;;;5.62;55.08
10460;BME280;54412;51.206;6.888;2023-03-16T03:42:43;101054.34;;;5.50;55.39
10460;BME280;54412;51.206;6.888;2023-03-16T03:45:10;101055.06;;;5.57;55.57
10460;BME280;54412;51.206;6.888;2023-03-16T03:47:40;101056.75;;;5.59;55.63
10460;BME280;54412;51.206;6.888;2023-03-16T03:50:08;101056.78;;;5.58;55.47
10460;BME280;54412;51.206;6.888;2023-03-16T03:52:35;101051.38;;;5.65;55.02
10460;BME280;54412;51.206;6.888;2023-03-16T03:55:01;101049.88;;;5.55;55.31
10460;BME280;54412;51.206;6.888;2023-03-16T03:57:26;101055.50;;;5.37;55.66
10460;BME280;54412;51.206;6.888;2023-03-16T03:59:52;101044.13;;;5.76;55.13
10460;BME280;54412;51.206;6.888;2023-03-16T04:02:18;101045.97;;;5.73;54.79
10460;BME280;54412;51.206;6.888;2023-03-16T04:04:43;101050.91;;;5.86;54.46
10460;BME280;54412;51.206;6.888;2023-03-16T04:07:10;101047.38;;;5.87;54.68
10460;BME280;54412;51.206;6.888;2023-03-16T04:09:35;101038.00;;;5.77;54.61
10460;BME280;54412;51.206;6.888;2023-03-16T04:12:04;101035.66;;;5.65;54.85
10460;BME280;54412;51.206;6.888;2023-03-16T04:14:31;101041.31;;;5.47;55.47
10460;BME280;54412;51.206;6.888;2023-03-16T04:16:57;101026.44;;;5.49;55.68
10460;BME280;54412;51.206;6.888;2023-03-16T04:19:24;101038.66;;;5.50;55.65
10460;BME280;54412;51.206;6.888;2023-03-16T04:21:51;101032.09;;;5.69;55.44
10460;BME280;54412;51.206;6.888;2023-03-16T04:24:17;101036.28;;;5.38;56.15
10460;BME280;54412;51.206;6.888;2023-03-16T04:26:44;101030.38;;;5.30;56.06
10460;BME280;54412;51.206;6.888;2023-03-16T04:29:14;101027.31;;;5.50;55.94
10460;BME280;54412;51.206;6.888;2023-03-16T04:31:43;101022.88;;;5.53;55.67
10460;BME280;54412;51.206;6.888;2023-03-16T04:34:09;101022.97;;;5.50;55.59
10460;BME280;54412;51.206;6.888;2023-03-16T04:36:36;101022.78;;;5.56;55.84
10460;BME280;54412;51.206;6.888;2023-03-16T04:39:04;101007.22;;;5.52;55.81
10460;BME280;54412;51.206;6.888;2023-03-16T04:41:30;101009.75;;;5.55;55.96
10460;BME280;54412;51.206;6.888;2023-03-16T04:43:57;100999.03;;;5.65;55.82
10460;BME280;54412;51.206;6.888;2023-03-16T04:46:24;101015.84;;;5.55;56.12
10460;BME280;54412;51.206;6.888;2023-03-16T04:48:51;101010.06;;;5.43;56.30
10460;BME280;54412;51.206;6.888;2023-03-16T04:51:17;101006.78;;;5.70;55.69
10460;BME280;54412;51.206;6.888;2023-03-16T04:53:43;101003.66;;;5.54;56.03
10460;BME280;54412;51.206;6.888;2023-03-16T04:56:10;101001.66;;;5.65;55.77
10460;BME280;54412;51.206;6.888;2023-03-16T04:58:49;101007.94;;;5.58;56.16
10460;BME280;54412;51.206;6.888;2023-03-16T05:01:16;101005.44;;;5.54;56.18
10460;BME280;54412;51.206;6.888;2023-03-16T05:03:43;100999.19;;;5.59;56.50
10460;BME280;54412;51.206;6.888;2023-03-16T05:06:10;101005.34;;;5.57;56.30
10460;BME280;54412;51.206;6.888;2023-03-16T05:08:36;101010.81;;;5.84;55.89
10460;BME280;54412;51.206;6.888;2023-03-16T05:11:02;100999.78;;;5.70;56.06
10460;BME280;54412;51.206;6.888;2023-03-16T05:13:28;101002.56;;;5.64;56.72
10460;BME280;54412;51.206;6.888;2023-03-16T05:15:54;100997.53;;;5.55;56.55
10460;BME280;54412;51.206;6.888;2023-03-16T05:18:21;101010.25;;;5.70;56.46
10460;BME280;54412;51.206;6.888;2023-03-16T05:20:53;101003.91;;;5.44;56.99
10460;BME280;54412;51.206;6.888;2023-03-16T05:23:21;101001.50;;;5.71;58.61
10460;BME280;54412;51.206;6.888;2023-03-16T05:25:48;100991.81;;;6.10;60.95
10460;BME280;54412;51.206;6.888;2023-03-16T05:28:15;101002.56;;;5.99;56.59
10460;BME280;54412;51.206;6.888;2023-03-16T05:30:42;101000.50;;;5.77;56.40
10460;BME280;54412;51.206;6.888;2023-03-16T05:33:09;101006.75;;;5.71;56.63
10460;BME280;54412;51.206;6.888;2023-03-16T05:35:36;101002.97;;;5.84;56.64
10460;BME280;54412;51.206;6.888;2023-03-16T05:38:03;100996.47;;;5.64;56.85
10460;BME280;54412;51.206;6.888;2023-03-16T05:40:29;100999.94;;;5.99;58.03
10460;BME280;54412;51.206;6.888;2023-03-16T05:42:56;100999.13;;;5.99;56.54
10460;BME280;54412;51.206;6.888;2023-03-16T05:45:22;101008.13;;;5.87;56.36
10460;BME280;54412;51.206;6.888;2023-03-16T05:47:49;101003.22;;;5.72;56.93
10460;BME280;54412;51.206;6.888;2023-03-16T05:50:15;101001.28;;;5.80;56.76
10460;BME280;54412;51.206;6.888;2023-03-16T05:52:43;101006.56;;;5.79;56.35
10460;BME280;54412;51.206;6.888;2023-03-16T05:55:10;101007.06;;;5.59;57.18
10460;BME280;54412;51.206;6.888;2023-03-16T05:57:37;101011.25;;;5.66;57.21
10460;BME280;54412;51.206;6.888;2023-03-16T06:00:08;101007.88;;;5.60;57.13
10460;BME280;54412;51.206;6.888;2023-03-16T06:02:40;101012.88;;;5.33;57.86
10460;BME280;54412;51.206;6.888;2023-03-16T06:05:07;101013.88;;;5.28;58.07
10460;BME280;54412;51.206;6.888;2023-03-16T06:07:34;101003.66;;;5.56;57.82
10460;BME280;54412;51.206;6.888;2023-03-16T06:09:59;101009.00;;;5.50;57.65
10460;BME280;54412;51.206;6.888;2023-03-16T06:12:25;101008.97;;;5.51;57.71
10460;BME280;54412;51.206;6.888;2023-03-16T06:14:51;101007.88;;;5.23;58.49
10460;BME280;54412;51.206;6.888;2023-03-16T06:17:16;101008.44;;;5.37;57.94
10460;BME280;54412;51.206;6.888;2023-03-16T06:19:42;100994.09;;;5.53;57.70
10460;BME280;54412;51.206;6.888;2023-03-16T06:22:08;101000.25;;;5.51;57.88
10460;BME280;54412;51.206;6.888;2023-03-16T06:24:33;101016.69;;;5.57;57.26
10460;BME280;54412;51.206;6.888;2023-03-16T06:26:59;101008.22;;;5.46;57.33
10460;BME280;54412;51.206;6.888;2023-03-16T06:29:25;101011.53;;;5.53;57.97
10460;BME280;54412;51.206;6.888;2023-03-16T06:31:51;101016.06;;;5.84;57.16
10460;BME280;54412;51.206;6.888;2023-03-16T06:34:17;101011.09;;;5.71;56.84
10460;BME280;54412;51.206;6.888;2023-03-16T06:36:43;101010.28;;;5.69;57.05
10460;BME280;54412;51.206;6.888;2023-03-16T06:39:09;101003.81;;;5.86;56.82
10460;BME280;54412;51.206;6.888;2023-03-16T06:41:34;101012.72;;;5.76;57.00
10460;BME280;54412;51.206;6.888;2023-03-16T06:44:01;101015.19;;;5.82;56.60
10460;BME280;54412;51.206;6.888;2023-03-16T06:46:27;101009.47;;;5.67;56.95
10460;BME280;54412;51.206;6.888;2023-03-16T06:48:53;101016.66;;;5.95;56.63
10460;BME280;54412;51.206;6.888;2023-03-16T06:51:18;101016.81;;;5.89;56.51
10460;BME280;54412;51.206;6.888;2023-03-16T06:53:44;101018.53;;;5.89;56.52
10460;BME280;54412;51.206;6.888;2023-03-16T06:56:10;101017.53;;;5.94;56.69
10460;BME280;54412;51.206;6.888;2023-03-16T06:58:35;101026.19;;;5.98;56.62
10460;BME280;54412;51.206;6.888;2023-03-16T07:01:03;101021.66;;;6.04;56.71
10460;BME280;54412;51.206;6.888;2023-03-16T07:03:29;101023.66;;;5.95;56.53
10460;BME280;54412;51.206;6.888;2023-03-16T07:05:56;101017.66;;;5.90;56.88
10460;BME280;54412;51.206;6.888;2023-03-16T07:08:21;101018.47;;;5.92;57.00
10460;BME280;54412;51.206;6.888;2023-03-16T07:10:50;101021.53;;;6.09;56.67
10460;BME280;54412;51.206;6.888;2023-03-16T07:13:16;101030.16;;;6.12;56.57
10460;BME280;54412;51.206;6.888;2023-03-16T07:15:42;101018.78;;;6.13;56.02
10460;BME280;54412;51.206;6.888;2023-03-16T07:18:09;101013.28;;;6.24;55.93
10460;BME280;54412;51.206;6.888;2023-03-16T07:20:37;101048.91;;;6.31;55.67
10460;BME280;54412;51.206;6.888;2023-03-16T07:23:03;101031.63;;;6.22;55.97
10460;BME280;54412;51.206;6.888;2023-03-16T07:25:29;101022.84;;;5.91;56.90
10460;BME280;54412;51.206;6.888;2023-03-16T07:27:56;101029.34;;;6.10;56.59
10460;BME280;54412;51.206;6.888;2023-03-16T07:30:22;101022.59;;;6.02;56.58
10460;BME280;54412;51.206;6.888;2023-03-16T07:32:50;101037.13;;;6.13;56.40
10460;BME280;54412;51.206;6.888;2023-03-16T07:35:16;101034.41;;;6.18;56.60
10460;BME280;54412;51.206;6.888;2023-03-16T07:37:42;101037.56;;;6.30;56.24
10460;BME280;54412;51.206;6.888;2023-03-16T07:40:09;101034.63;;;6.09;56.63
10460;BME280;54412;51.206;6.888;2023-03-16T07:42:36;101035.16;;;6.21;56.27
10460;BME280;54412;51.206;6.888;2023-03-16T07:45:04;101023.00;;;6.19;56.29
10460;BME280;54412;51.206;6.888;2023-03-16T07:47:29;101024.66;;;6.23;56.63
10460;BME280;54412;51.206;6.888;2023-03-16T07:49:56;101028.78;;;6.33;56.42
10460;BME280;54412;51.206;6.888;2023-03-16T07:52:22;101026.94;;;6.37;56.44
10460;BME280;54412;51.206;6.888;2023-03-16T07:54:48;101016.66;;;6.29;56.68
10460;BME280;54412;51.206;6.888;2023-03-16T07:57:14;101031.22;;;6.39;56.22
10460;BME280;54412;51.206;6.888;2023-03-16T07:59:40;101019.75;;;6.43;56.33
10460;BME280;54412;51.206;6.888;2023-03-16T08:02:11;101015.72;;;6.30;56.82
10460;BME280;54412;51.206;6.888;2023-03-16T08:04:37;101022.47;;;6.40;56.69
10460;BME280;54412;51.206;6.888;2023-03-16T08:07:03;101015.09;;;6.54;57.74
10460;BME280;54412;51.206;6.888;2023-03-16T08:09:28;101006.97;;;6.63;57.02
10460;BME280;54412;51.206;6.888;2023-03-16T08:11:54;101025.41;;;6.60;55.96
10460;BME280;54412;51.206;6.888;2023-03-16T08:14:20;101019.59;;;6.49;56.54
10460;BME280;54412;51.206;6.888;2023-03-16T08:16:45;101018.38;;;6.61;56.19
10460;BME280;54412;51.206;6.888;2023-03-16T08:19:11;101009.91;;;6.82;55.85
10460;BME280;54412;51.206;6.888;2023-03-16T08:21:37;101028.31;;;6.80;55.78
10460;BME280;54412;51.206;6.888;2023-03-16T08:24:03;101021.97;;;6.89;55.47
10460;BME280;54412;51.206;6.888;2023-03-16T08:26:29;101017.78;;;6.82;55.68
10460;BME280;54412;51.206;6.888;2023-03-16T08:28:55;101014.31;;;6.81;55.85
10460;BME280;54412;51.206;6.888;2023-03-16T08:31:21;101008.34;;;6.76;56.00
10460;BME280;54412;51.206;6.888;2023-03-16T08:33:50;100996.31;;;6.98;55.63
10460;BME280;54412;51.206;6.888;2023-03-16T08:36:17;100994.13;;;6.85;55.95
10460;BME280;54412;51.206;6.888;2023-03-16T08:38:43;100993.34;;;6.81;55.74
10460;BME280;54412;51.206;6.888;2023-03-16T08:41:10;100998.31;;;6.90;55.80
10460;BME280;54412;51.206;6.888;2023-03-16T08:43:37;101006.50;;;6.80;56.12
10460;BME280;54412;51.206;6.888;2023-03-16T08:46:03;101002.66;;;6.91;55.86
10460;BME280;54412;51.206;6.888;2023-03-16T08:48:30;101004.91;;;7.03;55.14
10460;BME280;54412;51.206;6.888;2023-03-16T08:51:01;101017.84;;;7.09;55.16
10460;BME280;54412;51.206;6.888;2023-03-16T08:53:28;101008.38;;;7.04;55.49
10460;BME280;54412;51.206;6.888;2023-03-16T08:56:04;101000.91;;;6.92;55.95
10460;BME280;54412;51.206;6.888;2023-03-16T08:58:32;101006.69;;;7.03;55.75
10460;BME280;54412;51.206;6.888;2023-03-16T09:01:03;101022.09;;;7.13;55.77
10460;BME280;54412;51.206;6.888;2023-03-16T09:03:31;101034.78;;;7.27;55.34
10460;BME280;54412;51.206;6.888;2023-03-16T09:06:07;101036.53;;;7.28;54.87
10460;BME280;54412;51.206;6.888;2023-03-16T09:08:35;101021.94;;;7.18;55.29
10460;BME280;54412;51.206;6.888;2023-03-16T09:11:04;101006.38;;;7.13;55.63
10460;BME280;54412;51.206;6.888;2023-03-16T09:13:33;101017.84;;;7.09;55.60
10460;BME280;54412;51.206;6.888;2023-03-16T09:15:59;101019.09;;;7.25;55.22
10460;BME280;54412;51.206;6.888;2023-03-16T09:18:25;101010.47;;;7.22;55.64
10460;BME280;54412;51.206;6.888;2023-03-16T09:20:59;101011.00;;;7.33;55.29
10460;BME280;54412;51.206;6.888;2023-03-16T09:23:26;101000.19;;;7.16;55.84
10460;BME280;54412;51.206;6.888;2023-03-16T09:25:52;101009.09;;;7.38;55.34
10460;BME280;54412;51.206;6.888;2023-03-16T09:28:21;100996.06;;;7.35;55.28
10460;BME280;54412;51.206;6.888;2023-03-16T09:30:46;101005.38;;;7.45;55.02
10460;BME280;54412;51.206;6.888;2023-03-16T09:33:14;101002.09;;;7.66;54.27
10460;BME280;54412;51.206;6.888;2023-03-16T09:35:40;100999.78;;;7.56;54.93
10460;BME280;54412;51.206;6.888;2023-03-16T09:38:05;100987.75;;;7.76;54.64
10460;BME280;54412;51.206;6.888;2023-03-16T09:40:33;100992.94;;;7.78;54.85
10460;BME280;54412;51.206;6.888;2023-03-16T09:46:11;100977.38;;;7.98;54.44
10460;BME280;54412;51.206;6.888;2023-03-16T09:48:39;100974.31;;;7.85;54.40
10460;BME280;54412;51.206;6.888;2023-03-16T09:51:22;100980.00;;;7.98;54.78
10460;BME280;54412;51.206;6.888;2023-03-16T09:53:58;100969.06;;;8.10;54.59
10460;BME280;54412;51.206;6.888;2023-03-16T09:56:34;100963.50;;;7.94;54.79
10460;BME280;54412;51.206;6.888;2023-03-16T09:59:10;100953.47;;;8.05;54.58
10460;BME280;54412;51.206;6.888;2023-03-16T10:02:04;100963.38;;;7.97;54.72
10460;BME280;54412;51.206;6.888;2023-03-16T10:05:01;100954.53;;;8.00;54.78
10460;BME280;54412;51.206;6.888;2023-03-16T10:08:12;100941.06;;;8.35;55.79
10460;BME280;54412;51.206;6.888;2023-03-16T10:13:35;100940.56;;;8.24;54.07
10460;BME280;54412;51.206;6.888;2023-03-16T10:16:19;100939.69;;;8.23;54.14
10460;BME280;54412;51.206;6.888;2023-03-16T10:18:49;100945.03;;;8.20;54.38
10460;BME280;54412;51.206;6.888;2023-03-16T10:21:18;100936.94;;;8.28;54.27
10460;BME280;54412;51.206;6.888;2023-03-16T10:23:47;100925.66;;;8.72;55.34
10460;BME280;54412;51.206;6.888;2023-03-16T10:26:27;100927.28;;;8.98;55.07
10460;BME280;54412;51.206;6.888;2023-03-16T10:28:55;100931.63;;;8.99;53.73
10460;BME280;54412;51.206;6.888;2023-03-16T10:31:22;100932.63;;;8.73;53.19
10460;BME280;54412;51.206;6.888;2023-03-16T10:33:54;100924.91;;;8.92;52.51
10460;BME280;54412;51.206;6.888;2023-03-16T10:36:33;100934.75;;;8.87;52.58
10460;BME280;54412;51.206;6.888;2023-03-16T10:39:07;100936.66;;;8.82;53.25
10460;BME280;54412;51.206;6.888;2023-03-16T10:41:37;100936.16;;;8.95;52.70
10460;BME280;54412;51.206;6.888;2023-03-16T10:44:25;100933.56;;;9.17;52.57
10460;BME280;54412;51.206;6.888;2023-03-16T10:47:04;100927.44;;;9.80;51.59
10460;BME280;54412;51.206;6.888;2023-03-16T10:49:42;100916.25;;;9.75;50.73
10460;BME280;54412;51.206;6.888;2023-03-16T10:52:22;100903.81;;;9.98;50.91
10460;BME280;54412;51.206;6.888;2023-03-16T10:54:57;100904.47;;;9.83;50.45
10460;BME280;54412;51.206;6.888;2023-03-16T10:57:35;100915.91;;;9.82;50.31
10460;BME280;54412;51.206;6.888;2023-03-16T11:00:14;100902.47;;;9.88;50.30
10460;BME280;54412;51.206;6.888;2023-03-16T11:02:41;100901.69;;;9.86;50.46
10460;BME280;54412;51.206;6.888;2023-03-16T11:07:55;100883.97;;;9.90;50.31
10460;BME280;54412;51.206;6.888;2023-03-16T11:10:37;100887.00;;;10.01;49.72
10460;BME280;54412;51.206;6.888;2023-03-16T11:13:17;100892.19;;;9.82;49.65
10460;BME280;54412;51.206;6.888;2023-03-16T11:18:48;100888.13;;;10.35;48.49
10460;BME280;54412;51.206;6.888;2023-03-16T11:21:26;100891.72;;;10.72;47.72
10460;BME280;54412;51.206;6.888;2023-03-16T11:23:56;100865.97;;;10.95;47.22
10460;BME280;54412;51.206;6.888;2023-03-16T11:26:33;100880.78;;;11.33;46.28
10460;BME280;54412;51.206;6.888;2023-03-16T11:29:10;100880.94;;;11.30;45.58
10460;BME280;54412;51.206;6.888;2023-03-16T11:31:56;100865.28;;;11.09;45.00
10460;BME280;54412;51.206;6.888;2023-03-16T11:34:30;100854.22;;;11.72;44.66
10460;BME280;54412;51.206;6.888;2023-03-16T11:42:37;100833.53;;;12.45;43.53
10460;BME280;54412;51.206;6.888;2023-03-16T11:45:19;100856.59;;;11.94;44.19
10460;BME280;54412;51.206;6.888;2023-03-16T12:15:42;100821.28;;;11.95;43.62
10460;BME280;54412;51.206;6.888;2023-03-16T12:18:57;100802.78;;;11.95;43.77
10460;BME280;54412;51.206;6.888;2023-03-16T12:21:40;100792.50;;;11.73;44.29
10460;BME280;54412;51.206;6.888;2023-03-16T12:24:19;100774.31;;;11.33;44.85
10460;BME280;54412;51.206;6.888;2023-03-16T12:26:47;100769.63;;;11.55;44.55
10460;BME280;54412;51.206;6.888;2023-03-16T12:29:33;100772.00;;;11.44;45.51
10460;BME280;54412;51.206;6.888;2023-03-16T12:35:25;100756.84;;;11.47;45.35
10460;BME280;54412;51.206;6.888;2023-03-16T12:43:54;100753.66;;;11.07;46.09
10460;BME280;54412;51.206;6.888;2023-03-16T12:48:59;100728.81;;;11.11;46.11
10460;BME280;54412;51.206;6.888;2023-03-16T12:51:35;100730.72;;;11.24;45.99
10460;BME280;54412;51.206;6.888;2023-03-16T12:54:01;100718.72;;;11.19;46.36
10460;BME280;54412;51.206;6.888;2023-03-16T12:56:33;100712.25;;;11.24;46.53
10460;BME280;54412;51.206;6.888;2023-03-16T12:59:03;100711.09;;;11.47;46.00
10460;BME280;54412;51.206;6.888;2023-03-16T13:01:43;100713.25;;;11.56;46.04
10460;BME280;54412;51.206;6.888;2023-03-16T13:04:19;100708.75;;;11.58;45.71
10460;BME280;54412;51.206;6.888;2023-03-16T13:06:50;100709.53;;;11.43;46.11
10460;BME280;54412;51.206;6.888;2023-03-16T13:09:26;100698.56;;;11.50;45.94
10460;BME280;54412;51.206;6.888;2023-03-16T13:11:53;100701.59;;;11.60;45.19
10460;BME280;54412;51.206;6.888;2023-03-16T13:14:41;100713.56;;;11.67;44.71
10460;BME280;54412;51.206;6.888;2023-03-16T13:19:44;100687.97;;;12.31;44.40
10460;BME280;54412;51.206;6.888;2023-03-16T13:27:32;100665.91;;;13.07;42.72
10460;BME280;54412;51.206;6.888;2023-03-16T13:30:15;100665.75;;;13.38;41.94
10460;BME280;54412;51.206;6.888;2023-03-16T13:32:43;100657.31;;;13.18;41.52
10460;BME280;54412;51.206;6.888;2023-03-16T13:35:17;100660.94;;;13.73;40.94
10460;BME280;54412;51.206;6.888;2023-03-16T13:37:44;100662.31;;;13.93;40.63
10460;BME280;54412;51.206;6.888;2023-03-16T13:40:24;100662.13;;;13.82;39.71
10460;BME280;54412;51.206;6.888;2023-03-16T13:42:52;100640.41;;;13.48;41.04
10460;BME280;54412;51.206;6.888;2023-03-16T13:45:26;100643.41;;;13.42;40.75
10460;BME280;54412;51.206;6.888;2023-03-16T13:47:53;100640.88;;;13.83;39.85
10460;BME280;54412;51.206;6.888;2023-03-16T13:50:19;100632.03;;;13.97;40.64
10460;BME280;54412;51.206;6.888;2023-03-16T13:53:17;100625.44;;;13.47;40.16
10460;BME280;54412;51.206;6.888;2023-03-16T13:55:46;100620.63;;;13.54;40.67
10460;BME280;54412;51.206;6.888;2023-03-16T13:58:28;100619.19;;;13.62;40.42
10460;BME280;54412;51.206;6.888;2023-03-16T14:00:58;100611.34;;;13.61;40.39
10460;BME280;54412;51.206;6.888;2023-03-16T14:03:37;100612.53;;;13.84;39.66
10460;BME280;54412;51.206;6.888;2023-03-16T14:06:06;100618.84;;;13.54;40.01
10460;BME280;54412;51.206;6.888;2023-03-16T14:08:32;100605.75;;;13.65;39.54
10460;BME280;54412;51.206;6.888;2023-03-16T14:10:59;100599.91;;;13.46;39.56
10460;BME280;54412;51.206;6.888;2023-03-16T14:16:09;100597.72;;;13.53;39.72
10460;BME280;54412;51.206;6.888;2023-03-16T14:18:44;100576.94;;;13.88;39.86
10460;BME280;54412;51.206;6.888;2023-03-16T14:21:18;100583.84;;;13.90;39.79
10460;BME280;54412;51.206;6.888;2023-03-16T14:23:51;100591.19;;;13.44;39.82
10460;BME280;54412;51.206;6.888;2023-03-16T14:26:18;100561.47;;;13.53;40.01
10460;BME280;54412;51.206;6.888;2023-03-16T14:29:04;100578.72;;;13.87;39.77
10460;BME280;54412;51.206;6.888;2023-03-16T14:31:38;100560.59;;;13.67;39.62
10460;BME280;54412;51.206;6.888;2023-03-16T14:34:26;100565.94;;;13.94;39.27